SWA918 KBWI-MKJS
Flight info
| Callsign | SWA918 |
|---|---|
| Flight time | 3h 7m |
| Altitude | 38000 |
| Route | N0449F380 CONLE5 SCOOB DCT EARZZ DCT SKARP Y313 IDOLS DCT JAZZI Y319 URSUS/N0451F390 UL780 TASNO UM221 NIBEO DCT ADSEL LENAR7 |
| Aircraft | B38M/M-SDE1FGHILORVWXY/HB1 |
Departure
| Time | 2026-05-04 14:03 |
|---|---|
| Airport | Baltimore/Washington International Thurgood Marshall Airport (KBWI) |
Arrival
| Time | 2026-05-04 17:10 |
|---|---|
| Airport | Sangster International Airport (MKJS) |
| Time | Latitude | Longitude | Altitude | Speed | Heading |
|---|---|---|---|---|---|
| 2026-05-04 13:41 | 39.17783 | -76.67121 | 155 ft | 0 kts | 55° |
| 2026-05-04 13:50 | 39.17778 | -76.67131 | 155 ft | 2 kts | 55° |
| 2026-05-04 13:50 | 39.17767 | -76.67150 | 155 ft | 3 kts | 55° |
| 2026-05-04 13:51 | 39.17757 | -76.67171 | 155 ft | 3 kts | 68° |
| 2026-05-04 13:51 | 39.17753 | -76.67197 | 155 ft | 3 kts | 90° |
| 2026-05-04 13:51 | 39.17756 | -76.67220 | 155 ft | 0 kts | 108° |
| 2026-05-04 13:55 | 39.17756 | -76.67219 | 155 ft | 0 kts | 108° |
| 2026-05-04 13:56 | 39.17755 | -76.67215 | 154 ft | 1 kts | 108° |
| 2026-05-04 13:57 | 39.17742 | -76.67185 | 155 ft | 6 kts | 130° |
| 2026-05-04 13:57 | 39.17694 | -76.67135 | 155 ft | 11 kts | 144° |
| 2026-05-04 13:58 | 39.17533 | -76.66857 | 155 ft | 8 kts | 112° |
| 2026-05-04 13:58 | 39.17461 | -76.66774 | 155 ft | 10 kts | 95° |
| 2026-05-04 13:58 | 39.17455 | -76.66676 | 155 ft | 13 kts | 94° |
| 2026-05-04 13:59 | 39.17448 | -76.66549 | 155 ft | 16 kts | 93° |
| 2026-05-04 13:59 | 39.17440 | -76.66396 | 155 ft | 19 kts | 94° |
| 2026-05-04 13:59 | 39.17415 | -76.66008 | 155 ft | 25 kts | 95° |
| 2026-05-04 14:00 | 39.17404 | -76.65798 | 155 ft | 18 kts | 91° |
| 2026-05-04 14:00 | 39.17388 | -76.65590 | 155 ft | 8 kts | 129° |
| 2026-05-04 14:00 | 39.17339 | -76.65544 | 155 ft | 9 kts | 149° |
| 2026-05-04 14:01 | 39.17296 | -76.65515 | 155 ft | 5 kts | 182° |
| 2026-05-04 14:01 | 39.17280 | -76.65550 | 155 ft | 1 kts | 272° |
| 2026-05-04 14:01 | 39.17280 | -76.65551 | 155 ft | 0 kts | 272° |
| 2026-05-04 14:02 | 39.17285 | -76.65694 | 155 ft | 45 kts | 274° |
| 2026-05-04 14:02 | 39.17329 | -76.66403 | 155 ft | 113 kts | 274° |
| 2026-05-04 14:02 | 39.17399 | -76.67675 | 184 ft | 165 kts | 274° |
| 2026-05-04 14:03 | 39.17466 | -76.69140 | 939 ft | 162 kts | 274° |
| 2026-05-04 14:03 | 39.17555 | -76.70575 | 1719 ft | 166 kts | 271° |
| 2026-05-04 14:03 | 39.17644 | -76.72140 | 2201 ft | 185 kts | 275° |
| 2026-05-04 14:03 | 39.17518 | -76.73885 | 2639 ft | 208 kts | 257° |
| 2026-05-04 14:04 | 39.15260 | -76.76313 | 3826 ft | 247 kts | 195° |
| 2026-05-04 14:04 | 39.13479 | -76.75993 | 4521 ft | 269 kts | 164° |
| 2026-05-04 14:04 | 39.11925 | -76.74552 | 5387 ft | 278 kts | 143° |
| 2026-05-04 14:05 | 39.08537 | -76.72254 | 6770 ft | 279 kts | 175° |
| 2026-05-04 14:05 | 39.06649 | -76.71939 | 6959 ft | 278 kts | 179° |
| 2026-05-04 14:05 | 39.04694 | -76.71788 | 7104 ft | 277 kts | 186° |
| 2026-05-04 14:06 | 39.02762 | -76.71836 | 7790 ft | 279 kts | 187° |
| 2026-05-04 14:06 | 39.00825 | -76.71860 | 8629 ft | 281 kts | 186° |
| 2026-05-04 14:06 | 38.98854 | -76.71869 | 9392 ft | 285 kts | 186° |
| 2026-05-04 14:06 | 38.96855 | -76.71866 | 10126 ft | 290 kts | 185° |
| 2026-05-04 14:07 | 38.94786 | -76.71857 | 10608 ft | 305 kts | 185° |
| 2026-05-04 14:07 | 38.92614 | -76.71842 | 11034 ft | 319 kts | 185° |
| 2026-05-04 14:07 | 38.90363 | -76.71823 | 11641 ft | 326 kts | 185° |
| 2026-05-04 14:07 | 38.88087 | -76.71804 | 12345 ft | 329 kts | 185° |
| 2026-05-04 14:08 | 38.85789 | -76.71784 | 13034 ft | 333 kts | 185° |
| 2026-05-04 14:08 | 38.83457 | -76.71765 | 13720 ft | 336 kts | 185° |
| 2026-05-04 14:08 | 38.81105 | -76.71744 | 14386 ft | 339 kts | 185° |
| 2026-05-04 14:08 | 38.78726 | -76.71724 | 15039 ft | 343 kts | 185° |
| 2026-05-04 14:09 | 38.73901 | -76.71683 | 16277 ft | 350 kts | 185° |
| 2026-05-04 14:09 | 38.71450 | -76.71662 | 16861 ft | 354 kts | 185° |
| 2026-05-04 14:10 | 38.66493 | -76.71619 | 17973 ft | 361 kts | 185° |
| 2026-05-04 14:10 | 38.63966 | -76.71598 | 18507 ft | 364 kts | 185° |
| 2026-05-04 14:10 | 38.61420 | -76.71576 | 19035 ft | 367 kts | 185° |
| 2026-05-04 14:10 | 38.58855 | -76.71555 | 19579 ft | 369 kts | 186° |
| 2026-05-04 14:11 | 38.56275 | -76.71533 | 20114 ft | 371 kts | 186° |
| 2026-05-04 14:11 | 38.51097 | -76.71489 | 21151 ft | 373 kts | 186° |
| 2026-05-04 14:11 | 38.48490 | -76.71467 | 21622 ft | 375 kts | 187° |
| 2026-05-04 14:12 | 38.45905 | -76.71445 | 22076 ft | 377 kts | 187° |
| 2026-05-04 14:12 | 38.43272 | -76.71423 | 22568 ft | 378 kts | 187° |
| 2026-05-04 14:12 | 38.37988 | -76.70831 | 23526 ft | 386 kts | 180° |
| 2026-05-04 14:13 | 38.35309 | -76.70376 | 23889 ft | 388 kts | 180° |
| 2026-05-04 14:13 | 38.32611 | -76.69938 | 24290 ft | 390 kts | 180° |
| 2026-05-04 14:13 | 38.29915 | -76.69511 | 24677 ft | 392 kts | 181° |
| 2026-05-04 14:13 | 38.27185 | -76.69085 | 25057 ft | 394 kts | 181° |
| 2026-05-04 14:14 | 38.24459 | -76.68661 | 25425 ft | 396 kts | 181° |
| 2026-05-04 14:14 | 38.18998 | -76.67815 | 26130 ft | 399 kts | 181° |
| 2026-05-04 14:14 | 38.16237 | -76.67388 | 26475 ft | 401 kts | 181° |
| 2026-05-04 14:15 | 38.10665 | -76.66535 | 27132 ft | 403 kts | 182° |
| 2026-05-04 14:15 | 38.05099 | -76.66181 | 27750 ft | 404 kts | 185° |
| 2026-05-04 14:16 | 37.99457 | -76.65802 | 28313 ft | 408 kts | 184° |
| 2026-05-04 14:16 | 37.96611 | -76.65605 | 28594 ft | 410 kts | 184° |
| 2026-05-04 14:17 | 37.90880 | -76.65207 | 29145 ft | 414 kts | 183° |
| 2026-05-04 14:17 | 37.87996 | -76.65008 | 29409 ft | 415 kts | 183° |
| 2026-05-04 14:17 | 37.82190 | -76.64606 | 29925 ft | 419 kts | 183° |
| 2026-05-04 14:18 | 37.79315 | -76.64408 | 30173 ft | 420 kts | 182° |
| 2026-05-04 14:18 | 37.73454 | -76.64004 | 30657 ft | 424 kts | 182° |
| 2026-05-04 14:19 | 37.67546 | -76.63596 | 31179 ft | 425 kts | 183° |
| 2026-05-04 14:19 | 37.64587 | -76.63393 | 31494 ft | 424 kts | 184° |
| 2026-05-04 14:19 | 37.61647 | -76.63190 | 31758 ft | 425 kts | 183° |
| 2026-05-04 14:19 | 37.58688 | -76.63142 | 31914 ft | 422 kts | 191° |
| 2026-05-04 14:20 | 37.55769 | -76.63510 | 32151 ft | 421 kts | 192° |
| 2026-05-04 14:20 | 37.52877 | -76.63901 | 32373 ft | 422 kts | 192° |
| 2026-05-04 14:20 | 37.49921 | -76.64304 | 32583 ft | 424 kts | 192° |
| 2026-05-04 14:21 | 37.44036 | -76.65108 | 32993 ft | 427 kts | 192° |
| 2026-05-04 14:21 | 37.41104 | -76.65509 | 33190 ft | 428 kts | 192° |
| 2026-05-04 14:21 | 37.38136 | -76.65914 | 33389 ft | 430 kts | 192° |
| 2026-05-04 14:21 | 37.35170 | -76.66319 | 33615 ft | 430 kts | 192° |
| 2026-05-04 14:22 | 37.32183 | -76.66726 | 33806 ft | 432 kts | 192° |
| 2026-05-04 14:22 | 37.29226 | -76.67316 | 33982 ft | 428 kts | 198° |
| 2026-05-04 14:22 | 37.26309 | -76.68128 | 34270 ft | 427 kts | 198° |
| 2026-05-04 14:22 | 37.23400 | -76.68910 | 34526 ft | 427 kts | 197° |
| 2026-05-04 14:23 | 37.17602 | -76.70421 | 34976 ft | 428 kts | 197° |
| 2026-05-04 14:23 | 37.14688 | -76.71171 | 35194 ft | 428 kts | 197° |
| 2026-05-04 14:23 | 37.11774 | -76.71920 | 35408 ft | 428 kts | 197° |
| 2026-05-04 14:24 | 37.08855 | -76.72669 | 35617 ft | 428 kts | 197° |
| 2026-05-04 14:24 | 37.05935 | -76.73418 | 35820 ft | 428 kts | 197° |
| 2026-05-04 14:24 | 37.03016 | -76.74166 | 36014 ft | 428 kts | 197° |
| 2026-05-04 14:24 | 37.00100 | -76.74913 | 36187 ft | 428 kts | 197° |
| 2026-05-04 14:25 | 36.97179 | -76.75660 | 36369 ft | 428 kts | 197° |
| 2026-05-04 14:25 | 36.91328 | -76.77155 | 36722 ft | 429 kts | 197° |
| 2026-05-04 14:25 | 36.88402 | -76.77902 | 36903 ft | 428 kts | 197° |
| 2026-05-04 14:26 | 36.85481 | -76.78646 | 37100 ft | 428 kts | 197° |
| 2026-05-04 14:26 | 36.82604 | -76.79380 | 37271 ft | 428 kts | 197° |
| 2026-05-04 14:26 | 36.79681 | -76.80124 | 37437 ft | 427 kts | 197° |
| 2026-05-04 14:26 | 36.76765 | -76.80866 | 37596 ft | 427 kts | 197° |
| 2026-05-04 14:27 | 36.73847 | -76.81608 | 37749 ft | 427 kts | 197° |
| 2026-05-04 14:27 | 36.70934 | -76.82348 | 37897 ft | 427 kts | 197° |
| 2026-05-04 14:27 | 36.68021 | -76.83087 | 38083 ft | 427 kts | 197° |
| 2026-05-04 14:27 | 36.65107 | -76.83826 | 38109 ft | 429 kts | 197° |
| 2026-05-04 14:28 | 36.59268 | -76.85306 | 38110 ft | 429 kts | 197° |
| 2026-05-04 14:28 | 36.53441 | -76.86780 | 38111 ft | 429 kts | 197° |
| 2026-05-04 14:29 | 36.41746 | -76.89731 | 38111 ft | 429 kts | 197° |
| 2026-05-04 14:30 | 36.35890 | -76.91206 | 38111 ft | 429 kts | 197° |
| 2026-05-04 14:31 | 36.27146 | -76.93403 | 38117 ft | 428 kts | 197° |
| 2026-05-04 14:32 | 36.15464 | -76.96331 | 38120 ft | 428 kts | 197° |
| 2026-05-04 14:32 | 36.09637 | -76.97789 | 38123 ft | 426 kts | 197° |
| 2026-05-04 14:33 | 36.03835 | -76.99238 | 38126 ft | 426 kts | 197° |
| 2026-05-04 14:33 | 35.98016 | -77.00688 | 38129 ft | 425 kts | 197° |
| 2026-05-04 14:34 | 35.92213 | -77.02132 | 38131 ft | 425 kts | 197° |
| 2026-05-04 14:34 | 35.86437 | -77.03566 | 38131 ft | 423 kts | 197° |
| 2026-05-04 14:35 | 35.80701 | -77.04987 | 38132 ft | 422 kts | 197° |
| 2026-05-04 14:35 | 35.74922 | -77.06418 | 38132 ft | 422 kts | 197° |
| 2026-05-04 14:36 | 35.70127 | -77.07603 | 38133 ft | 422 kts | 197° |
| 2026-05-04 14:36 | 35.64367 | -77.09025 | 38134 ft | 422 kts | 197° |
| 2026-05-04 14:37 | 35.58587 | -77.10449 | 38136 ft | 422 kts | 197° |
| 2026-05-04 14:37 | 35.52825 | -77.11867 | 38136 ft | 422 kts | 197° |
| 2026-05-04 14:38 | 35.47082 | -77.13279 | 38138 ft | 422 kts | 197° |
| 2026-05-04 14:38 | 35.41304 | -77.14697 | 38139 ft | 422 kts | 197° |
| 2026-05-04 14:39 | 35.35572 | -77.16101 | 38142 ft | 422 kts | 197° |
| 2026-05-04 14:39 | 35.29812 | -77.17510 | 38150 ft | 422 kts | 197° |
| 2026-05-04 14:40 | 35.21179 | -77.19619 | 38158 ft | 421 kts | 197° |
| 2026-05-04 14:40 | 35.15432 | -77.21020 | 38166 ft | 421 kts | 197° |
| 2026-05-04 14:41 | 35.09726 | -77.22409 | 38171 ft | 420 kts | 198° |
| 2026-05-04 14:42 | 34.98247 | -77.25198 | 38166 ft | 420 kts | 198° |
| 2026-05-04 14:42 | 34.92511 | -77.26588 | 38162 ft | 420 kts | 198° |
| 2026-05-04 14:43 | 34.86799 | -77.27970 | 38159 ft | 420 kts | 198° |
| 2026-05-04 14:43 | 34.81054 | -77.29359 | 38155 ft | 420 kts | 198° |
| 2026-05-04 14:44 | 34.75310 | -77.30746 | 38153 ft | 420 kts | 198° |
| 2026-05-04 14:44 | 34.69576 | -77.32128 | 38150 ft | 420 kts | 198° |
| 2026-05-04 14:45 | 34.63826 | -77.33511 | 38150 ft | 420 kts | 198° |
| 2026-05-04 14:45 | 34.58122 | -77.34883 | 38150 ft | 420 kts | 198° |
| 2026-05-04 14:46 | 34.52383 | -77.36260 | 38151 ft | 420 kts | 198° |
| 2026-05-04 14:46 | 34.46640 | -77.37637 | 38154 ft | 421 kts | 198° |
| 2026-05-04 14:47 | 34.40892 | -77.39012 | 38155 ft | 421 kts | 198° |
| 2026-05-04 14:47 | 34.35126 | -77.40390 | 38158 ft | 422 kts | 198° |
| 2026-05-04 14:48 | 34.29389 | -77.41759 | 38161 ft | 422 kts | 198° |
| 2026-05-04 14:48 | 34.23618 | -77.43134 | 38163 ft | 422 kts | 198° |
| 2026-05-04 14:49 | 34.17854 | -77.44506 | 38165 ft | 422 kts | 198° |
| 2026-05-04 14:49 | 34.12068 | -77.45881 | 38172 ft | 423 kts | 198° |
| 2026-05-04 14:50 | 34.06290 | -77.47253 | 38171 ft | 423 kts | 198° |
| 2026-05-04 14:50 | 34.00515 | -77.48621 | 38171 ft | 423 kts | 198° |
| 2026-05-04 14:51 | 33.94775 | -77.49980 | 38171 ft | 423 kts | 198° |
| 2026-05-04 14:51 | 33.89008 | -77.51343 | 38169 ft | 422 kts | 198° |
| 2026-05-04 14:52 | 33.83250 | -77.52702 | 38170 ft | 421 kts | 198° |
| 2026-05-04 14:52 | 33.77491 | -77.54059 | 38170 ft | 421 kts | 198° |
| 2026-05-04 14:53 | 33.71730 | -77.55415 | 38171 ft | 421 kts | 198° |
| 2026-05-04 14:53 | 33.66010 | -77.56760 | 38170 ft | 421 kts | 198° |
| 2026-05-04 14:54 | 33.60253 | -77.58111 | 38170 ft | 421 kts | 198° |
| 2026-05-04 14:54 | 33.54417 | -77.59147 | 38169 ft | 424 kts | 195° |
| 2026-05-04 14:55 | 33.48561 | -77.60119 | 38170 ft | 424 kts | 195° |
| 2026-05-04 14:55 | 33.42745 | -77.61093 | 38170 ft | 424 kts | 195° |
| 2026-05-04 14:56 | 33.36898 | -77.62072 | 38170 ft | 424 kts | 195° |
| 2026-05-04 14:56 | 33.31045 | -77.63051 | 38170 ft | 424 kts | 195° |
| 2026-05-04 14:57 | 33.25194 | -77.64028 | 38171 ft | 424 kts | 195° |
| 2026-05-04 14:57 | 33.19378 | -77.64998 | 38171 ft | 424 kts | 195° |
| 2026-05-04 14:58 | 33.13523 | -77.65973 | 38171 ft | 424 kts | 195° |
| 2026-05-04 14:58 | 33.07663 | -77.66947 | 38171 ft | 425 kts | 195° |
| 2026-05-04 14:59 | 33.01795 | -77.67922 | 38171 ft | 426 kts | 195° |
| 2026-05-04 15:00 | 32.93026 | -77.69376 | 38171 ft | 426 kts | 195° |
| 2026-05-04 15:00 | 32.87152 | -77.70348 | 38170 ft | 426 kts | 195° |
| 2026-05-04 15:01 | 32.78354 | -77.71802 | 38170 ft | 425 kts | 195° |
| 2026-05-04 15:01 | 32.72477 | -77.72772 | 38170 ft | 425 kts | 195° |
| 2026-05-04 15:02 | 32.66620 | -77.73737 | 38170 ft | 425 kts | 195° |
| 2026-05-04 15:02 | 32.60792 | -77.74696 | 38170 ft | 425 kts | 195° |
| 2026-05-04 15:03 | 32.54921 | -77.75660 | 38170 ft | 425 kts | 195° |
| 2026-05-04 15:03 | 32.49048 | -77.76624 | 38170 ft | 425 kts | 195° |
| 2026-05-04 15:04 | 32.43227 | -77.77578 | 38170 ft | 425 kts | 195° |
| 2026-05-04 15:04 | 32.37351 | -77.78540 | 38170 ft | 425 kts | 195° |
| 2026-05-04 15:05 | 32.31487 | -77.79499 | 38170 ft | 425 kts | 195° |
| 2026-05-04 15:05 | 32.25632 | -77.80454 | 38170 ft | 425 kts | 195° |
| 2026-05-04 15:06 | 32.19769 | -77.81410 | 38170 ft | 425 kts | 195° |
| 2026-05-04 15:07 | 32.10986 | -77.82840 | 38170 ft | 427 kts | 195° |
| 2026-05-04 15:07 | 32.05104 | -77.83796 | 38169 ft | 425 kts | 195° |
| 2026-05-04 15:08 | 31.99229 | -77.84750 | 38170 ft | 426 kts | 196° |
| 2026-05-04 15:08 | 31.93355 | -77.85702 | 38171 ft | 426 kts | 196° |
| 2026-05-04 15:09 | 31.87479 | -77.86651 | 38170 ft | 426 kts | 196° |
| 2026-05-04 15:09 | 31.81607 | -77.87597 | 38171 ft | 426 kts | 196° |
| 2026-05-04 15:10 | 31.72814 | -77.89012 | 38171 ft | 426 kts | 196° |
| 2026-05-04 15:11 | 31.63987 | -77.90429 | 38171 ft | 426 kts | 196° |
| 2026-05-04 15:11 | 31.58110 | -77.91371 | 38171 ft | 426 kts | 196° |
| 2026-05-04 15:12 | 31.52230 | -77.92312 | 38171 ft | 426 kts | 196° |
| 2026-05-04 15:12 | 31.46389 | -77.93246 | 38171 ft | 426 kts | 196° |
| 2026-05-04 15:13 | 31.40505 | -77.94186 | 38171 ft | 426 kts | 196° |
| 2026-05-04 15:13 | 31.34622 | -77.95124 | 38171 ft | 426 kts | 196° |
| 2026-05-04 15:14 | 31.28748 | -77.96060 | 38171 ft | 426 kts | 196° |
| 2026-05-04 15:14 | 31.22873 | -77.96995 | 38171 ft | 426 kts | 196° |
| 2026-05-04 15:15 | 31.16986 | -77.97930 | 38171 ft | 426 kts | 196° |
| 2026-05-04 15:15 | 31.11114 | -77.98862 | 38171 ft | 426 kts | 196° |
| 2026-05-04 15:16 | 31.02330 | -78.00254 | 38171 ft | 426 kts | 196° |
| 2026-05-04 15:17 | 30.93506 | -78.01649 | 38171 ft | 426 kts | 196° |
| 2026-05-04 15:17 | 30.84704 | -78.03039 | 38171 ft | 426 kts | 196° |
| 2026-05-04 15:18 | 30.78821 | -78.03966 | 38171 ft | 426 kts | 196° |
| 2026-05-04 15:19 | 30.70027 | -78.05350 | 38170 ft | 426 kts | 196° |
| 2026-05-04 15:19 | 30.61206 | -78.06735 | 38167 ft | 424 kts | 196° |
| 2026-05-04 15:20 | 30.55356 | -78.07653 | 38170 ft | 424 kts | 196° |
| 2026-05-04 15:20 | 30.49538 | -78.08564 | 38170 ft | 424 kts | 196° |
| 2026-05-04 15:21 | 30.43674 | -78.09482 | 38171 ft | 424 kts | 196° |
| 2026-05-04 15:22 | 30.34882 | -78.10895 | 38171 ft | 424 kts | 195° |
| 2026-05-04 15:22 | 30.26145 | -78.12302 | 38172 ft | 424 kts | 195° |
| 2026-05-04 15:23 | 30.20287 | -78.13243 | 38171 ft | 424 kts | 195° |
| 2026-05-04 15:23 | 30.14466 | -78.14178 | 38170 ft | 424 kts | 195° |
| 2026-05-04 15:24 | 30.02752 | -78.16054 | 38170 ft | 424 kts | 195° |
| 2026-05-04 15:25 | 29.97876 | -78.16834 | 38170 ft | 424 kts | 195° |
| 2026-05-04 15:26 | 29.88145 | -78.18388 | 38167 ft | 425 kts | 195° |
| 2026-05-04 15:26 | 29.79311 | -78.19797 | 38171 ft | 427 kts | 195° |
| 2026-05-04 15:27 | 29.71462 | -78.21046 | 38170 ft | 427 kts | 195° |
| 2026-05-04 15:28 | 29.62636 | -78.22448 | 38171 ft | 427 kts | 195° |
| 2026-05-04 15:29 | 29.53768 | -78.23855 | 38128 ft | 429 kts | 195° |
| 2026-05-04 15:30 | 29.33075 | -78.27126 | 38122 ft | 429 kts | 195° |
| 2026-05-04 15:31 | 29.24204 | -78.28525 | 38112 ft | 428 kts | 195° |
| 2026-05-04 15:32 | 29.09484 | -78.30840 | 38111 ft | 428 kts | 195° |
| 2026-05-04 15:34 | 28.94759 | -78.33150 | 38112 ft | 428 kts | 195° |
| 2026-05-04 15:34 | 28.85895 | -78.34537 | 38111 ft | 428 kts | 195° |
| 2026-05-04 15:35 | 28.77083 | -78.35913 | 38112 ft | 428 kts | 195° |
| 2026-05-04 15:36 | 28.68235 | -78.37293 | 38111 ft | 428 kts | 195° |
| 2026-05-04 15:36 | 28.62332 | -78.38212 | 38111 ft | 428 kts | 195° |
| 2026-05-04 15:37 | 28.56429 | -78.39131 | 38111 ft | 428 kts | 195° |
| 2026-05-04 15:37 | 28.50525 | -78.40048 | 38111 ft | 428 kts | 195° |
| 2026-05-04 15:38 | 28.44621 | -78.40964 | 38111 ft | 428 kts | 195° |
| 2026-05-04 15:38 | 28.38720 | -78.41879 | 38111 ft | 428 kts | 195° |
| 2026-05-04 15:39 | 28.32839 | -78.42790 | 38112 ft | 428 kts | 195° |
| 2026-05-04 15:40 | 28.23996 | -78.44157 | 38112 ft | 428 kts | 195° |
| 2026-05-04 15:40 | 28.18077 | -78.45071 | 38112 ft | 428 kts | 195° |
| 2026-05-04 15:41 | 28.12205 | -78.45977 | 38114 ft | 428 kts | 195° |
| 2026-05-04 15:41 | 28.06369 | -78.46876 | 38080 ft | 418 kts | 196° |
| 2026-05-04 15:42 | 28.00612 | -78.47762 | 38082 ft | 417 kts | 196° |
| 2026-05-04 15:42 | 27.94849 | -78.48648 | 38082 ft | 417 kts | 196° |
| 2026-05-04 15:43 | 27.89127 | -78.49527 | 38082 ft | 417 kts | 196° |
| 2026-05-04 15:43 | 27.83361 | -78.50411 | 38082 ft | 417 kts | 196° |
| 2026-05-04 15:44 | 27.77609 | -78.51293 | 38082 ft | 417 kts | 196° |
| 2026-05-04 15:44 | 27.71855 | -78.52174 | 38083 ft | 417 kts | 196° |
| 2026-05-04 15:45 | 27.66103 | -78.53054 | 38082 ft | 417 kts | 196° |
| 2026-05-04 15:45 | 27.60339 | -78.53934 | 38082 ft | 417 kts | 196° |
| 2026-05-04 15:46 | 27.54606 | -78.54809 | 38082 ft | 417 kts | 196° |
| 2026-05-04 15:46 | 27.48848 | -78.55687 | 38082 ft | 417 kts | 196° |
| 2026-05-04 15:47 | 27.43089 | -78.56563 | 38082 ft | 417 kts | 196° |
| 2026-05-04 15:47 | 27.37316 | -78.57442 | 38082 ft | 417 kts | 196° |
| 2026-05-04 15:48 | 27.31554 | -78.58317 | 38082 ft | 417 kts | 196° |
| 2026-05-04 15:48 | 27.22950 | -78.59623 | 38082 ft | 417 kts | 196° |
| 2026-05-04 15:49 | 27.17191 | -78.60496 | 38082 ft | 417 kts | 196° |
| 2026-05-04 15:49 | 27.11431 | -78.61368 | 38082 ft | 417 kts | 196° |
| 2026-05-04 15:50 | 27.05668 | -78.62240 | 38082 ft | 418 kts | 196° |
| 2026-05-04 15:50 | 26.99939 | -78.63105 | 38082 ft | 418 kts | 196° |
| 2026-05-04 15:51 | 26.94175 | -78.63975 | 38082 ft | 418 kts | 196° |
| 2026-05-04 15:51 | 26.88412 | -78.64844 | 38081 ft | 418 kts | 196° |
| 2026-05-04 15:52 | 26.82647 | -78.65713 | 38082 ft | 418 kts | 196° |
| 2026-05-04 15:52 | 26.76877 | -78.66581 | 38082 ft | 418 kts | 196° |
| 2026-05-04 15:53 | 26.71145 | -78.67443 | 38082 ft | 418 kts | 196° |
| 2026-05-04 15:53 | 26.65369 | -78.68310 | 38081 ft | 419 kts | 196° |
| 2026-05-04 15:54 | 26.59606 | -78.69175 | 38081 ft | 419 kts | 196° |
| 2026-05-04 15:54 | 26.53814 | -78.70039 | 38081 ft | 419 kts | 196° |
| 2026-05-04 15:55 | 26.48039 | -78.70898 | 38081 ft | 419 kts | 195° |
| 2026-05-04 15:55 | 26.42253 | -78.71756 | 38081 ft | 419 kts | 195° |
| 2026-05-04 15:56 | 26.36507 | -78.72609 | 38080 ft | 419 kts | 195° |
| 2026-05-04 15:56 | 26.30708 | -78.73468 | 38079 ft | 420 kts | 195° |
| 2026-05-04 15:57 | 26.24912 | -78.74326 | 38078 ft | 420 kts | 195° |
| 2026-05-04 15:57 | 26.19113 | -78.75183 | 38077 ft | 421 kts | 195° |
| 2026-05-04 15:58 | 26.13302 | -78.76042 | 38075 ft | 421 kts | 195° |
| 2026-05-04 15:58 | 26.07512 | -78.76896 | 38073 ft | 422 kts | 195° |
| 2026-05-04 15:59 | 26.01685 | -78.77755 | 38071 ft | 423 kts | 195° |
| 2026-05-04 15:59 | 25.95842 | -78.78616 | 38068 ft | 423 kts | 195° |
| 2026-05-04 16:00 | 25.89998 | -78.79476 | 38066 ft | 424 kts | 195° |
| 2026-05-04 16:00 | 25.84175 | -78.80332 | 38064 ft | 425 kts | 195° |
| 2026-05-04 16:01 | 25.78304 | -78.81194 | 38062 ft | 425 kts | 195° |
| 2026-05-04 16:01 | 25.72431 | -78.82055 | 38061 ft | 426 kts | 195° |
| 2026-05-04 16:02 | 25.66548 | -78.82918 | 38060 ft | 426 kts | 195° |
| 2026-05-04 16:03 | 25.57753 | -78.84205 | 38082 ft | 426 kts | 195° |
| 2026-05-04 16:03 | 25.51842 | -78.85069 | 38082 ft | 429 kts | 195° |
| 2026-05-04 16:04 | 25.45920 | -78.85934 | 38082 ft | 429 kts | 195° |
| 2026-05-04 16:04 | 25.37052 | -78.87227 | 38082 ft | 429 kts | 195° |
| 2026-05-04 16:05 | 25.31115 | -78.88092 | 38083 ft | 431 kts | 195° |
| 2026-05-04 16:06 | 25.22213 | -78.89388 | 38082 ft | 431 kts | 195° |
| 2026-05-04 16:07 | 25.10298 | -78.91118 | 38082 ft | 431 kts | 195° |
| 2026-05-04 16:08 | 24.98391 | -78.92844 | 38082 ft | 431 kts | 195° |
| 2026-05-04 16:09 | 24.83548 | -78.94991 | 38082 ft | 431 kts | 195° |
| 2026-05-04 16:10 | 24.71680 | -78.96704 | 38082 ft | 431 kts | 195° |
| 2026-05-04 16:11 | 24.59770 | -78.98420 | 38082 ft | 431 kts | 195° |
| 2026-05-04 16:12 | 24.41965 | -79.00979 | 38077 ft | 431 kts | 195° |
| 2026-05-04 16:13 | 24.30067 | -79.02684 | 38072 ft | 431 kts | 195° |
| 2026-05-04 16:14 | 24.18142 | -79.04391 | 38072 ft | 431 kts | 195° |
| 2026-05-04 16:16 | 24.04274 | -79.06372 | 38072 ft | 431 kts | 195° |
| 2026-05-04 16:17 | 23.89179 | -79.07222 | 38072 ft | 438 kts | 189° |
| 2026-05-04 16:18 | 23.76984 | -79.07496 | 38072 ft | 438 kts | 189° |
| 2026-05-04 16:19 | 23.61784 | -79.07835 | 38071 ft | 438 kts | 189° |
| 2026-05-04 16:20 | 23.46529 | -79.08175 | 38062 ft | 439 kts | 188° |
| 2026-05-04 16:22 | 23.31274 | -79.08514 | 38062 ft | 438 kts | 188° |
| 2026-05-04 16:23 | 23.12958 | -79.08920 | 38052 ft | 441 kts | 188° |
| 2026-05-04 16:25 | 22.94586 | -79.09327 | 38052 ft | 441 kts | 188° |
| 2026-05-04 16:26 | 22.73103 | -79.09801 | 38053 ft | 441 kts | 188° |
| 2026-05-04 16:28 | 22.57790 | -79.10135 | 38052 ft | 441 kts | 188° |
| 2026-05-04 16:29 | 22.36326 | -79.10602 | 38052 ft | 442 kts | 186° |
| 2026-05-04 16:31 | 22.20941 | -79.10936 | 38052 ft | 442 kts | 186° |
| 2026-05-04 16:31 | 22.11729 | -79.10779 | 38065 ft | 449 kts | 175° |
| 2026-05-04 16:32 | 22.02490 | -79.08812 | 38052 ft | 451 kts | 174° |
| 2026-05-04 16:33 | 21.90219 | -79.06095 | 38052 ft | 451 kts | 174° |
| 2026-05-04 16:34 | 21.80979 | -79.04051 | 38052 ft | 451 kts | 174° |
| 2026-05-04 16:35 | 21.62556 | -78.99982 | 38052 ft | 451 kts | 174° |
| 2026-05-04 16:36 | 21.53325 | -78.97947 | 38052 ft | 451 kts | 174° |
| 2026-05-04 16:37 | 21.44082 | -78.95913 | 38052 ft | 451 kts | 174° |
| 2026-05-04 16:38 | 21.31789 | -78.93211 | 38052 ft | 451 kts | 174° |
| 2026-05-04 16:39 | 21.16419 | -78.89839 | 38052 ft | 451 kts | 174° |
| 2026-05-04 16:40 | 21.04088 | -78.87140 | 38052 ft | 452 kts | 174° |
| 2026-05-04 16:41 | 20.88715 | -78.83782 | 38052 ft | 452 kts | 173° |
| 2026-05-04 16:43 | 20.73294 | -78.80420 | 38052 ft | 452 kts | 173° |
| 2026-05-04 16:43 | 20.64082 | -78.78415 | 38052 ft | 452 kts | 173° |
| 2026-05-04 16:45 | 20.45566 | -78.74393 | 38051 ft | 452 kts | 173° |
| 2026-05-04 16:46 | 20.30141 | -78.71049 | 38052 ft | 453 kts | 173° |
| 2026-05-04 16:47 | 20.17758 | -78.68370 | 38052 ft | 454 kts | 173° |
| 2026-05-04 16:48 | 20.05369 | -78.65694 | 38052 ft | 454 kts | 173° |
| 2026-05-04 16:49 | 19.92963 | -78.63134 | 37379 ft | 456 kts | 174° |
| 2026-05-04 16:50 | 19.86659 | -78.61860 | 35461 ft | 469 kts | 174° |
| 2026-05-04 16:50 | 19.80228 | -78.60559 | 33979 ft | 469 kts | 174° |
| 2026-05-04 16:51 | 19.73835 | -78.59268 | 32653 ft | 465 kts | 174° |
| 2026-05-04 16:51 | 19.70661 | -78.58627 | 32022 ft | 462 kts | 174° |
| 2026-05-04 16:51 | 19.64416 | -78.57366 | 30799 ft | 455 kts | 174° |
| 2026-05-04 16:52 | 19.58228 | -78.56118 | 29612 ft | 448 kts | 174° |
| 2026-05-04 16:52 | 19.55173 | -78.55503 | 29025 ft | 444 kts | 174° |
| 2026-05-04 16:53 | 19.49174 | -78.54295 | 27865 ft | 437 kts | 174° |
| 2026-05-04 16:53 | 19.40316 | -78.52512 | 26138 ft | 426 kts | 173° |
| 2026-05-04 16:54 | 19.37412 | -78.51929 | 25569 ft | 422 kts | 173° |
| 2026-05-04 16:55 | 19.26075 | -78.49652 | 23321 ft | 409 kts | 173° |
| 2026-05-04 16:55 | 19.20515 | -78.48536 | 22193 ft | 403 kts | 172° |
| 2026-05-04 16:56 | 19.15068 | -78.47444 | 21091 ft | 397 kts | 172° |
| 2026-05-04 16:56 | 19.06997 | -78.45827 | 19438 ft | 390 kts | 171° |
| 2026-05-04 16:57 | 19.04339 | -78.45295 | 18887 ft | 387 kts | 171° |
| 2026-05-04 16:57 | 18.99065 | -78.44239 | 17786 ft | 382 kts | 171° |
| 2026-05-04 16:58 | 18.92380 | -78.40080 | 16091 ft | 379 kts | 135° |
| 2026-05-04 16:58 | 18.90544 | -78.38078 | 15539 ft | 376 kts | 135° |
| 2026-05-04 16:59 | 18.86171 | -78.35009 | 13819 ft | 383 kts | 154° |
| 2026-05-04 17:00 | 18.76829 | -78.29730 | 10883 ft | 357 kts | 152° |
| 2026-05-04 17:00 | 18.70781 | -78.26250 | 8954 ft | 304 kts | 152° |
| 2026-05-04 17:01 | 18.67250 | -78.24218 | 8114 ft | 280 kts | 152° |
| 2026-05-04 17:01 | 18.63903 | -78.22293 | 7460 ft | 269 kts | 152° |
| 2026-05-04 17:02 | 18.60651 | -78.20422 | 6731 ft | 263 kts | 152° |
| 2026-05-04 17:02 | 18.58000 | -78.18899 | 6111 ft | 259 kts | 152° |
| 2026-05-04 17:03 | 18.55915 | -78.17700 | 5618 ft | 256 kts | 152° |
| 2026-05-04 17:03 | 18.54381 | -78.16819 | 5465 ft | 244 kts | 152° |
| 2026-05-04 17:03 | 18.51548 | -78.15192 | 5175 ft | 224 kts | 152° |
| 2026-05-04 17:04 | 18.48803 | -78.13615 | 4344 ft | 228 kts | 151° |
| 2026-05-04 17:04 | 18.46502 | -78.12295 | 3938 ft | 218 kts | 150° |
| 2026-05-04 17:05 | 18.44087 | -78.10672 | 3577 ft | 199 kts | 132° |
| 2026-05-04 17:05 | 18.43583 | -78.07966 | 3129 ft | 185 kts | 89° |
| 2026-05-04 17:06 | 18.44239 | -78.05411 | 2638 ft | 178 kts | 69° |
| 2026-05-04 17:06 | 18.44744 | -78.04236 | 2404 ft | 175 kts | 66° |
| 2026-05-04 17:07 | 18.45743 | -78.01967 | 1954 ft | 166 kts | 64° |
| 2026-05-04 17:07 | 18.46056 | -78.01246 | 1837 ft | 155 kts | 64° |
| 2026-05-04 17:07 | 18.46624 | -77.99944 | 1560 ft | 143 kts | 65° |
| 2026-05-04 17:07 | 18.47036 | -77.98996 | 1355 ft | 143 kts | 66° |
| 2026-05-04 17:08 | 18.47458 | -77.98027 | 1176 ft | 146 kts | 66° |
| 2026-05-04 17:08 | 18.48305 | -77.96075 | 802 ft | 148 kts | 66° |
| 2026-05-04 17:08 | 18.48733 | -77.95092 | 622 ft | 147 kts | 66° |
| 2026-05-04 17:09 | 18.49159 | -77.94124 | 423 ft | 144 kts | 65° |
| 2026-05-04 17:09 | 18.49562 | -77.93172 | 211 ft | 141 kts | 64° |
| 2026-05-04 17:09 | 18.49971 | -77.92249 | 24 ft | 137 kts | 64° |
| 2026-05-04 17:10 | 18.50477 | -77.91088 | 19 ft | 23 kts | 65° |
| 2026-05-04 17:10 | 18.50526 | -77.90718 | 19 ft | 7 kts | 113° |
| 2026-05-04 17:11 | 18.50482 | -77.90687 | 19 ft | 8 kts | 186° |
| 2026-05-04 17:11 | 18.50442 | -77.90742 | 19 ft | 12 kts | 247° |
| 2026-05-04 17:11 | 18.50342 | -77.90977 | 19 ft | 23 kts | 245° |
| 2026-05-04 17:12 | 18.50269 | -77.91145 | 19 ft | 28 kts | 246° |
| 2026-05-04 17:12 | 18.50138 | -77.91445 | 19 ft | 23 kts | 245° |
| 2026-05-04 17:13 | 18.49963 | -77.91818 | 19 ft | 9 kts | 185° |
| 2026-05-04 17:14 | 18.49917 | -77.91800 | 19 ft | 0 kts | 156° |